Flight Track Log - Related Links

Times and Time Zones

All times are in EDT time to prevent confusion due to time zone crossing. See the SWA411 flight status page for this flight to view local times or setup timezone preferences in your user account.


Time Position Orientation Groundspeed Altitude Reporting Facility
EDT Latitude Longitude Course Direction KTS MPH feet Rate Location/Type
Mon 08:24:22 AM 39.7000 -86.3167 218° Southwest 150 173 1,600  Level Indianapolis TRACON
Mon 08:24:52 AM 39.6833 -86.3333 218° Southwest 155 178 2,400 2,000 Climbing Indianapolis TRACON
Mon 08:25:46 AM 39.6500 -86.3667 218° Southwest 219 252 4,400 1,862 Climbing Indianapolis TRACON
Mon 08:26:19 AM 39.6367 -86.4033 245° Southwest 221 254 5,100 2,653 Climbing Indianapolis Center
Mon 08:27:21 AM 39.6208 -86.5067 259° West 242 278 8,600 3,290 Climbing Indianapolis Center
Mon 08:28:23 AM 39.6022 -86.5972 255° West 255 293 11,900 2,732 Climbing Indianapolis Center
Mon 08:29:24 AM 39.5850 -86.7075 259° West 306 352 14,200 2,390 Climbing Indianapolis Center
Mon 08:30:26 AM 39.5622 -86.8286 256° West 338 389 16,800 2,710 Climbing Indianapolis Center
Mon 08:31:28 AM 39.5400 -86.9572 257° West 360 414 19,800 2,732 Climbing Indianapolis Center
Mon 08:32:29 AM 39.5183 -87.0864 258° West 367 422 22,400 2,244 Climbing Indianapolis Center
Mon 08:33:31 AM 39.4939 -87.2206 257° West 380 437 24,400 1,839 Climbing Indianapolis Center
Mon 08:34:33 AM 39.4967 -87.3589 272° West 387 445 26,200 1,951 Climbing Indianapolis Center
Mon 08:35:34 AM 39.5022 -87.5303 272° West 398 458 28,400 2,000 Climbing Indianapolis Center
Mon 08:36:36 AM 39.4994 -87.6761 269° West 407 468 30,300 1,742 Climbing Indianapolis Center
Mon 08:37:38 AM 39.4972 -87.8206 269° West 405 466 32,000 1,561 Climbing Indianapolis Center
Mon 08:38:39 AM 39.4936 -87.9669 268° West 406 467 33,500 976 Climbing Indianapolis Center
Mon 08:39:41 AM 39.4908 -88.1139 269° West 410 472 34,000 291 Climbing Indianapolis Center
Mon 08:40:22 AM 39.4903 -88.2206 270° West 408 470 34,000 882 Level Kansas City Center
Mon 08:41:23 AM 39.4872 -88.3661 268° West 406 467 35,500 1,339 Climbing Kansas City Center
Mon 08:42:23 AM 39.4844 -88.5108 269° West 405 466 36,700 1,073 Climbing Kansas City Center
Mon 08:43:26 AM 39.4814 -88.6517 268° West 409 471 37,700 624 Climbing Kansas City Center
Mon 08:44:28 AM 39.4769 -88.8297 268° West 411 473 38,000 148 Climbing Kansas City Center
Mon 08:45:28 AM 39.4725 -88.9761 268° West 409 471 38,000  Level Kansas City Center
Mon 08:46:31 AM 39.4689 -89.1244 268° West 410 472 38,000  Level Kansas City Center
Mon 08:47:32 AM 39.4650 -89.2717 268° West 410 472 38,000  Level Kansas City Center
Mon 08:48:32 AM 39.4611 -89.4097 268° West 410 472 38,000  Level Kansas City Center
Mon 08:49:33 AM 39.4569 -89.5578 268° West 412 474 38,000  Level Kansas City Center
Mon 08:50:38 AM 39.4506 -89.7356 267° West 414 476 38,000  Level Kansas City Center
Mon 08:51:39 AM 39.4461 -89.8844 268° West 416 479 38,000  Level Kansas City Center
Mon 08:52:40 AM 39.4414 -90.0336 268° West 417 480 38,000  Level Kansas City Center
Mon 08:53:42 AM 39.4361 -90.1822 267° West 417 480 38,000  Level Kansas City Center
Mon 08:54:42 AM 39.4303 -90.3322 267° West 419 482 38,000  Level Kansas City Center
Mon 08:55:44 AM 39.4247 -90.4825 267° West 421 484 38,000  Level Kansas City Center
Mon 08:56:45 AM 39.4194 -90.6317 267° West 420 483 38,000  Level Kansas City Center
Mon 08:57:46 AM 39.4119 -90.8106 267° West 419 482 38,000  Level Kansas City Center
Mon 08:58:47 AM 39.4047 -90.9586 266° West 416 479 38,000  Level Kansas City Center
Mon 08:59:50 AM 39.3986 -91.1083 267° West 419 482 38,000  Level Kansas City Center
Mon 09:00:51 AM 39.3903 -91.2578 266° West 418 481 38,000  Level Kansas City Center
Mon 09:01:51 AM 39.3839 -91.4056 267° West 417 480 38,000  Level Kansas City Center
Mon 09:02:54 AM 39.3769 -91.5533 267° West 415 478 38,000  Level Kansas City Center
Mon 09:03:54 AM 39.3692 -91.7156 267° West 412 474 38,000  Level Kansas City Center
Mon 09:04:56 AM 39.3619 -91.8631 266° West 412 474 38,000  Level Kansas City Center
Mon 09:05:56 AM 39.3539 -92.0117 266° West 415 478 38,000  Level Kansas City Center
Mon 09:06:57 AM 39.3469 -92.1592 267° West 414 476 38,000  Level Kansas City Center
Mon 09:07:59 AM 39.3386 -92.3094 266° West 417 480 38,000  Level Kansas City Center
Mon 09:09:00 AM 39.3300 -92.4592 266° West 419 482 38,000  Level Kansas City Center
Mon 09:10:03 AM 39.3203 -92.6419 266° West 422 486 38,000  Level Kansas City Center
Mon 09:11:06 AM 39.3103 -92.7925 265° West 423 487 38,000  Level Kansas City Center
Mon 09:12:07 AM 39.3022 -92.9433 266° West 423 487 38,000  Level Kansas City Center
Mon 09:13:08 AM 39.2931 -93.0939 266° West 424 488 38,000  Level Kansas City Center
Mon 09:14:09 AM 39.2833 -93.2433 265° West 421 484 38,000  Level Kansas City Center
Mon 09:15:09 AM 39.2742 -93.3944 266° West 424 488 38,000  Level Kansas City Center
Mon 09:16:13 AM 39.2633 -93.5583 265° West 418 481 38,000  Level Kansas City Center
Mon 09:17:12 AM 39.2547 -93.7028 266° West 421 484 38,000  Level Kansas City Center
Mon 09:18:13 AM 39.2422 -93.8719 265° West 424 488 38,000  Level Kansas City Center
Mon 09:19:17 AM 39.2331 -94.0167 265° West 423 487 38,000  Level Kansas City Center
Mon 09:20:17 AM 39.2211 -94.1867 265° West 426 490 38,000  Level Kansas City Center
Mon 09:21:19 AM 39.2103 -94.3325 265° West 426 490 38,000  Level Kansas City Center
Mon 09:22:20 AM 39.1994 -94.4772 265° West 424 488 38,000  Level Kansas City Center
Mon 09:23:22 AM 39.1864 -94.6464 264° West 424 488 38,000  Level Kansas City Center
Mon 09:24:22 AM 39.1753 -94.7933 264° West 429 494 38,000  Level Kansas City Center
Mon 09:25:24 AM 39.1625 -94.9622 264° West 424 488 38,000  Level Kansas City Center
Mon 09:26:25 AM 39.1506 -95.1067 264° West 421 484 38,000  Level Kansas City Center
Mon 09:27:26 AM 39.1378 -95.2669 264° West 427 491 38,000  Level Kansas City Center
Mon 09:28:30 AM 39.1253 -95.4286 264° West 424 488 38,000  Level Kansas City Center
Mon 09:29:32 AM 39.1131 -95.5739 264° West 423 487 38,000  Level Kansas City Center
Mon 09:30:32 AM 39.0858 -95.7147 256° West 425 489 38,000  Level Kansas City Center
Mon 09:31:33 AM 39.0472 -95.8775 253° West 427 491 38,000  Level Kansas City Center
Mon 09:32:37 AM 39.0142 -96.0169 253° West 426 490 38,000  Level Kansas City Center
Mon 09:33:37 AM 38.9808 -96.1575 253° West 429 494 38,000  Level Kansas City Center
Mon 09:34:39 AM 38.9411 -96.3206 253° West 429 494 38,000  Level Kansas City Center
Mon 09:35:41 AM 38.9072 -96.4597 253° West 428 493 38,000  Level Kansas City Center
Mon 09:36:42 AM 38.8694 -96.6119 252° West 430 495 38,000  Level Kansas City Center
Mon 09:37:43 AM 38.8344 -96.7583 253° West 430 495 38,000  Level Kansas City Center
Mon 09:38:44 AM 38.7986 -96.9036 252° West 429 494 38,000  Level Kansas City Center
Mon 09:39:48 AM 38.7636 -97.0483 253° West 427 491 38,000  Level Kansas City Center
Mon 09:40:48 AM 38.7214 -97.2197 253° West 423 487 38,000  Level Kansas City Center
Mon 09:41:49 AM 38.6858 -97.3614 252° West 420 483 38,000  Level Kansas City Center
Mon 09:42:52 AM 38.6506 -97.5022 252° West 418 481 38,000  Level Kansas City Center
Mon 09:43:53 AM 38.6142 -97.6422 252° West 415 478 38,000  Level Kansas City Center
Mon 09:44:53 AM 38.5786 -97.7825 252° West 417 480 38,000  Level Kansas City Center
Mon 09:45:57 AM 38.5431 -97.9228 252° West 418 481 38,000  Level Kansas City Center
Mon 09:46:58 AM 38.5056 -98.0667 252° West 419 482 38,000  Level Kansas City Center
Mon 09:47:58 AM 38.4628 -98.2322 252° West 422 486 38,000  Level Kansas City Center
Mon 09:49:00 AM 38.4256 -98.3733 251° West 422 486 38,000  Level Kansas City Center
Mon 09:50:04 AM 38.3883 -98.5161 252° West 427 491 38,000  Level Kansas City Center
Mon 09:51:04 AM 38.3508 -98.6567 251° West 422 486 38,000  Level Kansas City Center
Mon 09:52:05 AM 38.3136 -98.7986 252° West 423 487 38,000  Level Kansas City Center
Mon 09:53:09 AM 38.2753 -98.9386 251° West 421 484 38,000  Level Kansas City Center
Mon 09:54:09 AM 38.2319 -99.1058 252° West 419 482 38,000  Level Kansas City Center
Mon 09:55:11 AM 38.1933 -99.2439 250° West 417 480 38,000  Level Kansas City Center
Mon 09:56:14 AM 38.1558 -99.3811 251° West 414 476 38,000  Level Kansas City Center
Mon 09:57:15 AM 38.1175 -99.5194 251° West 411 473 38,000  Level Kansas City Center
Mon 09:58:16 AM 38.0744 -99.6728 250° West 411 473 38,000  Level Kansas City Center
Mon 09:59:20 AM 38.0389 -99.8036 251° West 411 473 38,000  Level Kansas City Center
Mon 10:00:21 AM 37.9967 -99.9572 251° West 413 475 38,000  Level Kansas City Center
Mon 10:01:22 AM 37.9589 -100.0894 250° West 415 478 38,000  Level Kansas City Center
Mon 10:02:25 AM 37.9225 -100.2222 251° West 417 480 38,000  Level Kansas City Center
Mon 10:03:26 AM 37.8786 -100.3761 250° West 416 479 38,000  Level Kansas City Center
Mon 10:04:27 AM 37.8414 -100.5072 250° West 416 479 38,000  Level Kansas City Center
Mon 10:05:30 AM 37.7978 -100.6603 250° West 415 478 38,000  Level Kansas City Center
Mon 10:06:31 AM 37.7642 -100.7811 251° West 412 474 38,000  Level Kansas City Center
Mon 10:07:35 AM 37.7156 -100.9464 250° West 416 479 38,000  Level Kansas City Center
Mon 10:08:35 AM 37.6747 -101.0842 250° West 418 481 38,000  Level Kansas City Center
Mon 10:09:39 AM 37.6356 -101.2183 250° West 413 475 38,000  Level Kansas City Center
Mon 10:10:39 AM 37.5975 -101.3489 250° West 414 476 38,000  Level Kansas City Center
Mon 10:11:42 AM 37.5528 -101.5031 250° West 418 481 38,000  Level Kansas City Center
Mon 10:12:43 AM 37.5122 -101.6344 249° West 420 483 38,000  Level Kansas City Center
Mon 10:13:44 AM 37.4664 -101.7886 250° West 420 483 38,000  Level Kansas City Center
Mon 10:14:46 AM 37.4281 -101.9206 250° West 421 484 38,000  Level Kansas City Center
Mon 10:15:49 AM 37.3803 -102.0747 249° West 422 486 38,000  Level Kansas City Center
Mon 10:16:50 AM 37.3411 -102.2047 249° West 419 482 38,000  Level Kansas City Center
Mon 10:17:51 AM 37.2950 -102.3569 249° West 417 480 38,000  Level Kansas City Center
Mon 10:18:51 AM 37.2542 -102.4908 249° West 420 483 38,000  Level Albuquerque Center
Mon 10:19:52 AM 37.2150 -102.6206 249° West 418 481 38,000  Level Albuquerque Center
Mon 10:20:54 AM 37.1683 -102.7772 250° West 424 488 38,000  Level Albuquerque Center
Mon 10:21:55 AM 37.1250 -102.9119 248° West 431 496 38,000  Level Albuquerque Center
Mon 10:22:57 AM 37.0836 -103.0475 249° West 434 499 38,000  Level Albuquerque Center
Mon 10:23:58 AM 37.0342 -103.2039 248° West 433 498 38,000  Level Albuquerque Center
Mon 10:25:00 AM 36.9919 -103.3378 248° West 431 496 38,000  Level Albuquerque Center
Mon 10:26:01 AM 36.9431 -103.4922 248° West 428 493 38,000  Level Albuquerque Center
Mon 10:27:03 AM 36.9019 -103.6228 249° West 422 486 38,000  Level Albuquerque Center
Mon 10:28:04 AM 36.8603 -103.7533 248° West 421 484 38,000  Level Albuquerque Center
Mon 10:29:06 AM 36.8131 -103.9047 249° West 419 482 38,000  Level Albuquerque Center
Mon 10:30:08 AM 36.7708 -104.0328 248° West 417 480 38,000  Level Albuquerque Center
Mon 10:31:09 AM 36.7225 -104.1814 248° West 414 476 38,000  Level Albuquerque Center
Mon 10:32:11 AM 36.6803 -104.3094 248° West 415 478 38,000  Level Albuquerque Center
Mon 10:33:12 AM 36.6322 -104.4525 247° West 415 478 38,000  Level Albuquerque Center
Mon 10:34:14 AM 36.5869 -104.5886 248° West 419 482 38,000  Level Albuquerque Center
Mon 10:35:16 AM 36.5433 -104.7244 248° West 422 486 38,000  Level Albuquerque Center
Mon 10:36:17 AM 36.4983 -104.8586 247° West 420 483 38,000  Level Albuquerque Center
Mon 10:37:19 AM 36.4536 -104.9931 248° West 420 483 38,000  Level Albuquerque Center
Mon 10:38:21 AM 36.4086 -105.1286 248° West 421 484 38,000  Level Albuquerque Center
Mon 10:39:22 AM 36.3608 -105.2667 247° West 429 494 38,000  Level Albuquerque Center
Mon 10:40:24 AM 36.3167 -105.4008 248° West 423 487 38,000  Level Albuquerque Center
Mon 10:41:26 AM 36.2653 -105.5500 247° West 421 484 38,000  Level Albuquerque Center
Mon 10:42:28 AM 36.2203 -105.6822 247° West 420 483 38,000  Level Albuquerque Center
Mon 10:43:29 AM 36.1756 -105.8156 247° West 420 483 38,000  Level Albuquerque Center
Mon 10:44:31 AM 36.1306 -105.9467 247° West 418 481 38,000  Level Albuquerque Center
Mon 10:45:33 AM 36.0853 -106.0789 247° West 419 482 38,000  Level Albuquerque Center
Mon 10:46:35 AM 36.0303 -106.2361 247° West 419 482 38,000  Level Albuquerque Center
Mon 10:47:36 AM 35.9858 -106.3667 247° West 417 480 38,000  Level Albuquerque Center
Mon 10:48:38 AM 35.9403 -106.4969 247° West 417 480 38,000  Level Albuquerque Center
Mon 10:49:40 AM 35.8914 -106.6319 246° West 418 481 38,000  Level Albuquerque Center
Mon 10:50:42 AM 35.8392 -106.7786 246° West 419 482 38,000  Level Albuquerque Center
Mon 10:51:44 AM 35.7947 -106.9047 247° West 419 482 38,000  Level Albuquerque Center
Mon 10:52:45 AM 35.7500 -107.0303 246° West 418 481 38,000  Level Albuquerque Center
Mon 10:53:47 AM 35.6981 -107.1767 246° West 418 481 38,000  Level Albuquerque Center
Mon 10:54:49 AM 35.6539 -107.3017 247° West 417 480 38,000 -387 Level Albuquerque Center
Mon 10:55:51 AM 35.6019 -107.4475 246° West 416 479 37,200 -629 Descending Albuquerque Center
Mon 10:56:53 AM 35.5556 -107.5736 246° West 419 482 36,700 -581 Descending Albuquerque Center
Mon 10:57:55 AM 35.5011 -107.7222 246° West 425 489 36,000 -341 Descending Albuquerque Center
Mon 10:58:56 AM 35.4556 -107.8472 246° West 421 484 36,000  Level Albuquerque Center
Mon 10:59:58 AM 35.4322 -107.9961 259° West 410 472 36,000  Level Albuquerque Center
Mon 11:01:00 AM 35.4344 -108.1239 271° West 399 459 36,000 -48 Level Albuquerque Center
Mon 11:02:02 AM 35.3850 -108.2486 244° Southwest 412 474 35,900 -581 Descending Albuquerque Center
Mon 11:03:04 AM 35.3242 -108.3972 243° Southwest 428 493 34,800 -968 Descending Albuquerque Center
Mon 11:04:06 AM 35.2708 -108.5256 243° Southwest 436 502 33,900 -919 Descending Albuquerque Center
Mon 11:05:08 AM 35.2094 -108.6753 243° Southwest 438 504 32,900 -976 Descending Albuquerque Center
Mon 11:06:09 AM 35.1547 -108.8064 243° Southwest 444 511 31,900 -976 Descending Albuquerque Center
Mon 11:07:11 AM 35.0900 -108.9594 243° Southwest 450 518 30,900 -919 Descending Albuquerque Center
Mon 11:08:13 AM 35.0347 -109.0886 242° Southwest 449 517 30,000 -435 Descending Albuquerque Center
Mon 11:09:15 AM 34.9806 -109.2189 243° Southwest 449 517 30,000  Level Albuquerque Center
Mon 11:10:17 AM 34.9156 -109.3703 242° Southwest 449 517 30,000  Level Albuquerque Center
Mon 11:11:19 AM 34.8600 -109.4986 242° Southwest 449 517 30,000  Level Albuquerque Center
Mon 11:12:21 AM 34.7964 -109.6500 243° Southwest 449 517 30,000  Level Albuquerque Center
Mon 11:13:23 AM 34.7408 -109.7819 243° Southwest 453 521 30,000  Level Albuquerque Center
Mon 11:14:25 AM 34.6786 -109.9339 244° Southwest 451 519 30,000  Level Albuquerque Center
Mon 11:15:27 AM 34.6286 -110.0683 246° West 454 522 30,000  Level Albuquerque Center
Mon 11:16:29 AM 34.5747 -110.2325 248° West 464 534 30,000  Level Albuquerque Center
Mon 11:17:31 AM 34.5214 -110.3528 242° Southwest 435 501 30,000  Level Albuquerque Center
Mon 11:18:33 AM 34.4831 -110.4719 249° West 421 484 30,000  Level Albuquerque Center
Mon 11:19:35 AM 34.4264 -110.6206 245° Southwest 410 472 30,000 -484 Level Albuquerque Center
Mon 11:20:37 AM 34.3753 -110.7417 243° Southwest 406 467 29,000 -1,161 Descending Albuquerque Center
Mon 11:21:39 AM 34.3117 -110.8503 235° Southwest 400 460 27,600 -1,742 Descending Albuquerque Center
Mon 11:22:41 AM 34.2378 -110.9478 228° Southwest 395 455 25,400 -2,081 Descending Albuquerque Center
Mon 11:23:43 AM 34.1647 -111.0414 227° Southwest 386 444 23,300 -1,984 Descending Albuquerque Center
Mon 11:24:45 AM 34.0939 -111.1328 227° Southwest 378 435 21,300 -2,177 Descending Albuquerque Center
Mon 11:25:47 AM 34.0111 -111.2394 227° Southwest 367 422 18,800 -2,129 Descending Albuquerque Center
Mon 11:26:49 AM 33.9442 -111.3253 227° Southwest 354 407 16,900 -1,548 Descending Albuquerque Center
Mon 11:27:51 AM 33.8786 -111.4106 227° Southwest 346 398 15,600 -1,403 Descending Albuquerque Center
Mon 11:28:53 AM 33.8308 -111.4992 237° Southwest 317 365 14,000 -1,597 Descending Albuquerque Center
Mon 11:29:55 AM 33.7853 -111.5883 238° Southwest 312 359 12,300 -1,645 Descending Albuquerque Center
Mon 11:30:57 AM 33.7389 -111.6756 237° Southwest 307 353 10,600 -1,113 Descending Albuquerque Center
Mon 11:31:59 AM 33.6928 -111.7600 237° Southwest 302 348 10,000 -435 Descending Albuquerque Center
Mon 11:33:01 AM 33.6503 -111.8375 237° Southwest 280 322 9,700 -484 Descending Albuquerque Center
Mon 11:34:03 AM 33.6056 -111.9200 237° Southwest 249 287 9,000 -629 Descending Albuquerque Center
Mon 11:35:05 AM 33.5692 -111.9894 238° Southwest 246 283 8,400 -864 Descending Albuquerque Center
Mon 11:36:08 AM 33.5336 -112.0583 238° Southwest 243 280 7,200 -816 Descending Albuquerque Center
Mon 11:37:10 AM 33.5253 -112.1286 262° West 217 250 6,700 -726 Descending Albuquerque Center
Mon 11:38:12 AM 33.5253 -112.1953 270° West 202 232 5,700 -1,016 Descending Albuquerque Center
Mon 11:39:14 AM 33.4928 -112.2278 220° Southwest 192 221 4,600 -968 Descending Albuquerque Center
Mon 11:40:16 AM 33.4500 -112.1950 147° Southeast 172 198 3,700 -726 Descending Albuquerque Center
Mon 11:41:18 AM 33.4419 -112.1447 101° East 157 181 3,100 -700 Descending Albuquerque Center
Mon 11:42:16 AM 33.4333 -112.1000 103° East 151 174 2,300 -814 Descending Phoenix TRACON
Mon 11:43:16 AM 33.4333 -112.0500 90° East 127 146 1,500 -800 Descending Phoenix TRACON

Login

Don't have an account? Register now (free) for customized features, flight alerts, and more!